Timeline UpdatesTrip UpdatesNews PostsPvt PostsTravel TipsAdmin PostsConv PostsFollowed PostsChat RequestsBlog PostsPNR Posts

Disclaimer
Search
 
 
Sun Apr 20, 2014 13:50:07 ISTHomeTrainsΣChainsAtlasPNRForumGalleryNewsFAQTripsMembersLoginFeedback
No Recent News for this Train
Other Trains in the News **new
Latest...
.
Fri Feb 28, 2014 (07:32PM)
⇐ Return Journey: Train# 19216

19215/Saurashtra Express

Nov 09 2013 (9:09PM)
Change Departure Station:
Change Arrival Station:
Post a Train Travel TipPost a Train Travel Tip **new
Post a Comment/Question/Picture/VideoPost a Comment/Question/Picture/Video
Pantry/Catering
???
RSA - Rake Sharing
Rake/Coach Composition
ENG - SLR - GEN - GEN - GEN - FC1 - B1 - S4 - S3 - S2 - S1 - LD - GEN - RMS - GEN - GEN - GEN - SLR - Milk van
Loco
BCT-ADI: BRC WAP-4/BRC WAG-5P ADI-PBR: VTA WDM-3A
News    PNR    Forum    Time-Table    Availability    Fare Chart    Map    Arr/Dep History    Trips    Gallery    ΣChains    X/O    Timeline    
Travel Time: 5h 20m    20 halts    Distance: 259 km    Avg Speed: 48 km/hr
Type: Mail/Express
Zone: WR/Western
Departs @ 08:20 (Avg 1m late)
Platform# 3
SMTWTFS
Mumbai Central/BCT 
Arrives @ 13:40 (Avg 12m late)
Platform# 1
SMTWTFS
Udhna Junction/UDN 

20 halts. 56 intermediate Stations between Mumbai Central and Udhna Junction

Show ALL intermediate Stations  Show Old Time-Table

#CodeStation NameX/OArrivesAvgDepartsAvgHaltPFDay#KmSpeedElevZoneAddress
1BCT»Mumbai Central (9)»  -08:20+1310.0363mWRMumbai-400 008, Maharashtra
2DDRMumbai Dadar Western (6)  08:30+408:32+52m515.9516mWRMumbai, Maharashtra
3BVIMumbai Borivali (8)X  09:00+609:02+82m4129.74519mWRMumbai - 400092, Maharashtra
4BSRVasai Road (7)  09:25+309:27+32m4147.1467mWRThane-401202, Maharashtra
5VRVirar (8)  09:38+409:40+52m3155.5656mWRThane, Maharashtra
6SAHSaphale (2)X  09:55+1109:57+112m1171.8748mWRThane, Maharashtra
7PLGPalghar (3)X  10:09+1210:11+122m--186.66819mWRPalghar, Maharashtra
8BORBoisar (3)X  10:21+1210:23+122m2197.96517mWRBoisar Tel.no-02525-266626, Maharashtra
9DRDDahanu Road (5)X  10:43+1110:45+112m--1119.66712mWRDahanu, Maharashtra
10GVDGholvad (4)X  10:55+1110:57+102m--1130.85014mWRGholvad, Maharashtra
11UBRUmbargam Road (3)  11:08+911:10+82m11139.93630mWRUmbergaon, Gujarat
12SJNSanjan (3)X  11:19+811:21+72m--1145.35322mWRSanjan, Gujarat
13BLDBhilad (3)  11:34+511:36+52m--1156.9-33mWRBhilad, Gujarat
14VAPIVapi (3)X  11:40+1211:42+122m11168.14827mWRVapi, Gujarat
15UVDUdvada (3)X  11:54+1011:56+102m--1177.76018mWRUdvada, Gujarat
16PADPardi (3)  12:02+1012:04+92m--1183.73419mWRValsad, Gujarat
17BLValsad (3)X  12:23+112:25+102m--1194.45415mWRValsad, Gujarat
18BIMBilimora Junction (4)  12:45+712:47+82m11212.35611mWRBilimora, Gujarat
19AMLAmalsad (3)  12:53+912:55+82m--1217.97212mWRAmalsad, Gujarat
20NVSNavsari (3)X  13:08+1113:10+132m--1233.54614mWRNavsari, Gujarat
21MRLMaroli (3)X  13:21+1113:23+112m--1241.96115mWRMaroli, Gujarat
22UDN•Udhna Junction (3)•X  13:40+1213:42+132m11259.1916mWRUdhna 394210, Gujarat
23STSurat (4)X  14:10+114:15+35m11263.15919mWRSurat 395001, Gujarat
24SYNSayan (3)  14:29+814:31+82m--1276.88521mWRSayan Satellite town, Gujarat
25KIMKim (2)  14:38+1114:40+102m--1286.75818mWRNH 8, Gujarat
26KSBKosamba Junction (3)X  14:48+1214:50+112m--1294.57130mWRKosamba, Gujarat
27PAOPanoli (3)  14:57+1414:59+132m--1302.76929mWRPanoli, Gujarat
28AKVAnkleshwar Junction (4)  15:08+1515:10+152m11313.04319mWRAnkleshwar, Gujarat
29BHBharuch Junction (5)X  15:23+1315:25+142m31322.46619mWRBharuch, Gujarat
30NIUNabipur (3)X  15:36+1615:38+162m--1334.48024mWRNabipur, Gujarat
31PLJPalej (4)X  15:48+2215:50+212m--1347.88329mWRPalej, Gujarat
32MYGMiyagam Karjan (2)X  16:01+2416:03+242m21363.07029mWRKarjan, Gujarat
33ITAItola (4)  16:13+2616:15+252m--1374.64827mWRNational Highway 8, Gujarat
34VSVishvamitri (4)XO  16:34+2116:36+222m--1389.9930mWRVadodara, Gujarat
35BRCVadodara Junction (7)X  16:55+1517:00+175m41392.95036mWRVadodara, Gujarat
36VDAVasad Junction (3)X  17:24+1717:26+172m21413.15240mWRVasad, Gujarat
37ANNDAnand Junction (6)  17:44+1617:46+172m--1428.65644mWRAnand, Gujarat
38KBRVKanjari Boriyavi Junction (4)X  17:54+1717:56+172m--1436.15539mWRKanjari, Gujarat
39NDNadiad Junction (4)O  18:08+1618:10+172m--1447.15037mWRNadiad, Gujarat
40MHDMahemdavad Kheda Road (4)XO  18:31+1318:33+132m--1464.65737mWRMahemdavad, Gujarat
41BJDBarejadi (3)O  18:45+1818:47+182m--1476.02442mWRBareja-Barejadi Rd, Gujarat
42MANManinagar (2)O  19:21+1419:23+142m11489.51150mWRAhmadabad, Gujarat
43ADIAhmedabad Junction (12)XO19:40+820:00+1320m61492.61951mWRAhmedabad, Gujarat
44SBISabarmati Junction (3)  20:17-20:19-2m--1498.13755mWRAhmadabad, Gujarat
45CLDYChandlodiya  20:28+1420:30+142m--1503.76859mWRAhmedabad, Gujarat
46ABDAmbli RoadX  20:35+1520:37+152m--1509.47050mWRAhmedabad, Gujarat
47SAUSanand  20:47+1720:49+172m--1521.05840mWRSanand, Gujarat
48CEChharodiX  21:00+1821:02+182m--1531.77029mWRSH 17, Gujarat
49JKAJakhvadaX  21:14+1821:16+192m--1545.63031mWRState Highway 17, Gujarat
50VGViramgam Junction (5)X  21:41+921:43+102m11558.05229mWRViramgam, Gujarat
51SUNRSurendranagar Junction (4)  22:58+1523:00+182m11623.56472mWRSurendra Nagar, Gujarat
52THANThan Junction (3)  23:45+1623:47+182m11671.261138mWRThangadh, Gujarat
53WKRWankaner Junction (4)X  00:13+1900:15+212m--2697.84087mWRWankaner, Gujarat
54RJTRajkot Junction (5)X  01:18+801:24+146m32739.667128mWRRajkot, Gujarat
55HAPAHapa (3)X  02:32+902:34+102m--2815.54316mWRJamnagar, Gujarat
56JAMJamnagar (2)X  02:46+1002:48+122m--2824.14714mWRJamnagar, Gujarat
57LPJLalpur Jam  03:44+1003:46+102m--2868.26076mWRLalpur, Gujarat
58GOPGop Jam  04:03+1204:05+112m--2885.265126mWRState Highway 27, Gujarat
59BNVDBhanvad  04:22+1304:24+122m--2903.75555mWRBhanvad, Gujarat
60WSJWansjaliya  04:44+1204:45+121m--2921.98455mWRTarsai - Vansjaliya, Gujarat
61SKRSakhpur  04:50+804:52+82m--2928.93155mWRto railway station, Gujarat
62RWORanavavX  05:18+305:20+72m--2942.22737mWRRanavav, Gujarat
63PBRPorbandar  05:50-2-12955.5-7mWRPorbandar, Gujarat
Scroll to Top
Scroll to Bottom